Grand Strand Airport
KCRE : now visible

Airfield :











YOU CAN JOIN US ON...

 
LOGIN :

Register | Disclaimer

   EN    FR    IT 

 









Legend :    VFR   Marginal VFR   IFR   Intensive IFR   Very Intensive IFR
Visi :
Ceiling :
>= 8 km
>= 3000ft
5 to 8 km
1000 to 3000 ft
1500m to 5 km
500 to 1000 ft
800 to 1500m
200 to 500 ft
< 800m
< 200 ft
Symbols :   Thunderstorms  Fog  Heavy snow  Heavy precipitations  Wind > 20 kt






- Airport Elevation : 32 ft


KCRE - Grand Strand

CURRENT METAR :
  • 221353Z 36010G18KT 10SM SCT009 OVC033 M02/M03 A3032 RMK AO1 SLP267 T10221033

EXPIRED METARs :
  • 221345Z 35009KT 10SM SCT009 OVC033 M02/M04 A3032 RMK AO1 T10221039
  • 221334Z 36010G18KT 10SM SCT009 BKN028 OVC034 M03/M04 A3032 RMK AO1 T10281039
  • 221258Z 36007KT 10SM BKN009 OVC031 M03/M04 A3030 RMK AO1 CIG 008V012 T10281044
  • 221253Z 01010KT 10SM SCT011 OVC033 M03/M04 A3030 RMK AO1 SLP262 T10281044
  • 221228Z 01010KT 10SM SCT010 OVC033 M03/M04 A3030 RMK AO1 T10331044
  • 221153Z 36010G19KT 10SM OVC010 M03/M04 A3029 RMK AO1 CIG 008V012 SLP259 60009 70022 I6007 T10331044 11011 21033 53011
  • 221130Z AUTO 36009G20KT 10SM OVC010 M03/M04 A3028 RMK AO1 T10281044

TAF KCRE
Valid from the 22 at 12:00 until the 23 at 12:00 UTC


221120Z 2212/2312 35011G20KT P6SM BKN008 OVC015
TEMPO 2212/2214 SCT008 OVC015
FM221400 36013KT P6SM BKN015
FM221600 36012KT P6SM SCT025
FM230100 35005KT P6SM SKC
KZJX FIR / North America



MET'MAP, your aeronautical weather chart ! - Copyright ORBIFLY December 2007 - Disclaimer

ORBIFLY MET'MAP TEAM :

Programming & Development : Alexandra Zaïnal
Concept & original design : Baudouin d'Aumeries
Assistance for programming : Marc-Olivier Méhu
Technical & hardware support : Manuel Goepfert

Contact : metmap@orbifly.com




SOURCES & CREDITS :

   NOAA       Earth
Advisory